createdAt,value
2022-10-18T00:00:37.026Z,97777.28
2022-10-18T00:03:03.561Z,97782.13
2022-10-18T00:05:30.058Z,97783.16
2022-10-18T00:07:56.485Z,97779.31
2022-10-18T00:10:24.653Z,97782.72
2022-10-18T00:12:51.287Z,97779.50
2022-10-18T00:15:17.714Z,97777.91
2022-10-18T00:17:44.592Z,97792.81
2022-10-18T00:20:12.071Z,97785.97
2022-10-18T00:22:40.855Z,97793.41
2022-10-18T00:25:08.638Z,97791.16
2022-10-18T00:27:35.838Z,97779.38
2022-10-18T00:30:02.996Z,97787.28
2022-10-18T00:32:29.923Z,97780.19
2022-10-18T00:34:56.710Z,97778.81
2022-10-18T00:37:23.227Z,97782.69
2022-10-18T00:39:50.149Z,97787.72
2022-10-18T00:42:19.145Z,97779.81
2022-10-18T00:44:45.561Z,97783.50
2022-10-18T00:47:14.445Z,97769.97
2022-10-18T00:49:44.549Z,97772.97
2022-10-18T00:52:16.417Z,97771.19
2022-10-18T00:54:45.924Z,97773.03
2022-10-18T00:57:14.237Z,97773.13
2022-10-18T00:59:42.540Z,97778.78
2022-10-18T01:02:09.720Z,97782.81
2022-10-18T01:04:37.926Z,97780.22
2022-10-18T01:07:38.382Z,97771.59
2022-10-18T01:10:10.951Z,97781.13
2022-10-18T01:13:01.484Z,97782.34
2022-10-18T01:15:31.258Z,97778.53
2022-10-18T01:18:17.032Z,97777.16
2022-10-18T01:21:21.676Z,97790.88
2022-10-18T01:24:09.379Z,97788.88
2022-10-18T01:26:59.075Z,97783.63
2022-10-18T01:30:03.895Z,97779.84
2022-10-18T01:32:42.729Z,97781.84
2022-10-18T01:35:15.065Z,97785.09
2022-10-18T01:37:44.258Z,97789.88
2022-10-18T01:40:14.160Z,97787.47
2022-10-18T01:42:41.027Z,97783.25
2022-10-18T01:45:08.806Z,97786.47
2022-10-18T01:47:36.411Z,97791.94
2022-10-18T01:50:06.116Z,97783.47
2022-10-18T01:52:32.945Z,97774.22
2022-10-18T01:55:01.699Z,97786.50
2022-10-18T01:57:37.620Z,97774.88
2022-10-18T02:00:23.875Z,97772.19
2022-10-18T02:02:50.353Z,97780.53
2022-10-18T02:05:58.457Z,97765.22
2022-10-18T02:08:35.018Z,97769.66
2022-10-18T02:11:10.601Z,97764.97
2022-10-18T02:13:41.796Z,97753.72
2022-10-18T02:16:13.299Z,97769.25
2022-10-18T02:18:45.046Z,97769.06
2022-10-18T02:21:15.739Z,97758.38
2022-10-18T02:23:45.328Z,97762.59
2022-10-18T02:26:14.710Z,97762.41
2022-10-18T02:28:41.444Z,97764.41
2022-10-18T02:31:27.526Z,97761.56
2022-10-18T02:33:58.505Z,97750.72
2022-10-18T02:36:33.569Z,97758.34
2022-10-18T02:39:07.650Z,97752.50
2022-10-18T02:41:34.324Z,97759.94
2022-10-18T02:44:00.924Z,97748.06
2022-10-18T02:48:53.795Z,97749.69
2022-10-18T02:51:20.212Z,97754.13
2022-10-18T02:53:46.730Z,97752.88
2022-10-18T02:56:13.119Z,97755.28
2022-10-18T02:58:39.727Z,97750.47
2022-10-18T03:01:06.149Z,97750.88
2022-10-18T03:03:32.662Z,97747.28
2022-10-18T03:05:59.058Z,97747.88
2022-10-18T03:08:26.113Z,97744.44
2022-10-18T03:10:52.713Z,97741.03
2022-10-18T03:13:19.435Z,97753.50
2022-10-18T03:15:47.993Z,97756.13
2022-10-18T03:18:15.276Z,97761.59
2022-10-18T03:20:41.854Z,97766.03
2022-10-18T03:23:08.334Z,97764.66
2022-10-18T03:25:34.863Z,97771.13
2022-10-18T03:28:02.244Z,97761.22
2022-10-18T03:30:28.763Z,97768.50
2022-10-18T03:32:55.229Z,97764.47
2022-10-18T03:35:22.348Z,97756.78
2022-10-18T03:37:49.369Z,97764.25
2022-10-18T03:40:16.184Z,97766.47
2022-10-18T03:42:42.858Z,97776.38
2022-10-18T03:45:09.656Z,97771.53
2022-10-18T03:47:36.138Z,97775.97
2022-10-18T03:50:02.746Z,97773.78
2022-10-18T03:52:29.495Z,97776.19
2022-10-18T03:54:56.162Z,97772.19
2022-10-18T03:57:22.599Z,97780.06
2022-10-18T03:59:49.160Z,97778.03
2022-10-18T04:02:15.574Z,97783.91
2022-10-18T04:04:42.132Z,97770.00
2022-10-18T04:07:08.581Z,97772.44
2022-10-18T04:09:35.220Z,97773.19
2022-10-18T04:12:01.605Z,97773.19
2022-10-18T04:14:28.083Z,97762.72
2022-10-18T04:16:54.545Z,97777.63
2022-10-18T04:19:20.997Z,97774.41
2022-10-18T04:21:47.468Z,97777.22
2022-10-18T04:24:16.135Z,97779.41
2022-10-18T04:26:42.628Z,97779.00
2022-10-18T04:29:09.131Z,97769.09
2022-10-18T04:31:35.636Z,97771.50
2022-10-18T04:34:04.338Z,97768.88
2022-10-18T04:36:31.448Z,97768.66
2022-10-18T04:38:57.919Z,97767.28
2022-10-18T04:41:24.392Z,97763.25
2022-10-18T04:43:50.828Z,97775.41
2022-10-18T04:46:17.345Z,97760.91
2022-10-18T04:48:43.750Z,97764.97
2022-10-18T04:51:10.266Z,97750.47
2022-10-18T04:53:36.683Z,97746.38
2022-10-18T04:56:03.240Z,97734.78
2022-10-18T04:58:29.678Z,97746.44
2022-10-18T05:00:56.385Z,97739.97
2022-10-18T05:03:22.914Z,97750.47
2022-10-18T05:06:01.324Z,97752.25
2022-10-18T05:08:29.600Z,97755.28
2022-10-18T05:10:56.331Z,97755.88
2022-10-18T05:13:22.835Z,97758.50
2022-10-18T05:15:49.431Z,97740.75
2022-10-18T05:18:15.904Z,97749.19
2022-10-18T05:20:42.555Z,97756.25
2022-10-18T05:23:11.903Z,97760.13
2022-10-18T05:25:39.607Z,97757.31
2022-10-18T05:28:11.075Z,97752.88
2022-10-18T05:30:42.937Z,97754.66
2022-10-18T05:33:09.646Z,97759.06
2022-10-18T05:35:36.420Z,97751.38
2022-10-18T05:38:04.396Z,97743.34
2022-10-18T05:40:30.894Z,97750.81
2022-10-18T05:42:57.308Z,97755.41
2022-10-18T05:45:23.764Z,97750.16
2022-10-18T05:47:50.198Z,97760.84
2022-10-18T05:50:16.716Z,97760.00
2022-10-18T05:52:43.128Z,97755.72
2022-10-18T05:55:09.689Z,97762.84
2022-10-18T05:57:36.087Z,97762.63
2022-10-18T06:00:03.624Z,97764.81
2022-10-18T06:02:38.495Z,97757.53
2022-10-18T06:05:05.303Z,97770.00
2022-10-18T06:07:32.239Z,97758.34
2022-10-18T06:09:58.944Z,97759.16
2022-10-18T06:12:25.372Z,97761.97
2022-10-18T06:14:51.918Z,97760.81
2022-10-18T06:17:18.566Z,97764.41
2022-10-18T06:19:45.408Z,97757.47
2022-10-18T06:22:12.599Z,97771.63
2022-10-18T06:24:39.116Z,97777.31
2022-10-18T06:27:09.024Z,97777.03
2022-10-18T06:29:36.516Z,97773.34
2022-10-18T06:32:03.984Z,97778.00
2022-10-18T06:34:30.788Z,97776.16
2022-10-18T06:36:58.792Z,97772.88
2022-10-18T06:39:26.182Z,97775.44
2022-10-18T06:41:53.370Z,97772.75
2022-10-18T06:44:21.057Z,97773.41
2022-10-18T06:46:49.112Z,97781.72
2022-10-18T06:49:18.993Z,97787.56
2022-10-18T06:51:46.348Z,97785.31
2022-10-18T06:54:18.157Z,97783.63
2022-10-18T06:56:45.461Z,97791.63
2022-10-18T06:59:11.897Z,97793.69
2022-10-18T07:01:38.551Z,97784.13
2022-10-18T07:04:05.245Z,97782.50
2022-10-18T07:06:31.639Z,97788.19
2022-10-18T07:08:58.248Z,97786.78
2022-10-18T07:11:25.911Z,97787.09
2022-10-18T07:13:54.385Z,97802.50
2022-10-18T07:16:21.318Z,97774.94
2022-10-18T07:18:50.538Z,97781.22
2022-10-18T07:21:19.797Z,97781.47
2022-10-18T07:23:46.774Z,97778.72
2022-10-18T07:26:15.329Z,97790.50
2022-10-18T07:28:42.820Z,97782.81
2022-10-18T07:31:10.364Z,97781.28
2022-10-18T07:33:40.249Z,97779.09
2022-10-18T07:36:09.703Z,97774.47
2022-10-18T07:38:36.841Z,97776.16
2022-10-18T07:41:06.606Z,97782.38
2022-10-18T07:43:33.807Z,97777.22
2022-10-18T07:46:02.923Z,97777.53
2022-10-18T07:48:29.907Z,97792.00
2022-10-18T07:51:01.317Z,97799.09
2022-10-18T07:53:31.240Z,97802.78
2022-10-18T07:56:01.384Z,97794.78
2022-10-18T07:58:32.295Z,97789.41
2022-10-18T08:01:04.188Z,97786.56
2022-10-18T08:03:31.260Z,97782.44
2022-10-18T08:05:58.268Z,97785.44
2022-10-18T08:08:27.301Z,97790.16
2022-10-18T08:10:53.998Z,97785.44
2022-10-18T08:13:21.111Z,97786.38
2022-10-18T08:15:47.743Z,97791.66
2022-10-18T08:18:14.253Z,97798.41
2022-10-18T08:20:45.217Z,97794.06
2022-10-18T08:23:12.025Z,97783.38
2022-10-18T08:25:38.673Z,97782.94
2022-10-18T08:28:05.350Z,97789.06
2022-10-18T08:30:31.956Z,97785.25
2022-10-18T08:32:58.374Z,97783.31
2022-10-18T08:35:24.953Z,97788.69
2022-10-18T08:37:51.416Z,97790.28
2022-10-18T08:40:18.103Z,97789.16
2022-10-18T08:42:54.771Z,97784.22
2022-10-18T08:45:37.315Z,97785.31
2022-10-18T08:48:06.320Z,97782.09
2022-10-18T08:50:36.780Z,97786.16
2022-10-18T08:53:16.645Z,97776.88
2022-10-18T08:55:48.889Z,97775.38
2022-10-18T08:58:26.692Z,97781.84
2022-10-18T09:01:09.703Z,97779.63
2022-10-18T09:04:00.859Z,97783.22
2022-10-18T09:06:39.186Z,97781.63
2022-10-18T09:09:20.826Z,97780.50
2022-10-18T09:12:13.422Z,97761.53
2022-10-18T09:15:05.448Z,97777.16
2022-10-18T09:17:41.144Z,97778.13
2022-10-18T09:20:24.768Z,97771.34
2022-10-18T09:22:54.356Z,97765.81
2022-10-18T09:25:36.348Z,97770.84
2022-10-18T09:28:54.008Z,97767.38
2022-10-18T09:31:52.516Z,97774.88
2022-10-18T09:34:45.117Z,97755.44
2022-10-18T09:37:14.848Z,97763.25
2022-10-18T09:39:42.511Z,97751.66
2022-10-18T09:42:26.968Z,97749.59
2022-10-18T09:45:19.105Z,97758.84
2022-10-18T09:47:51.341Z,97755.84
2022-10-18T09:50:38.289Z,97759.75
2022-10-18T09:53:25.550Z,97757.66
2022-10-18T09:56:03.601Z,97753.44
2022-10-18T09:58:44.154Z,97755.34
2022-10-18T10:01:14.241Z,97758.91
2022-10-18T10:03:42.153Z,97759.00
2022-10-18T10:06:11.671Z,97758.00
2022-10-18T10:08:42.938Z,97747.38
2022-10-18T10:11:45.481Z,97754.84
2022-10-18T10:14:26.529Z,97754.38
2022-10-18T10:32:48.629Z,97736.84
2022-10-18T10:35:33.905Z,97741.38
2022-10-18T10:38:22.788Z,97736.25
2022-10-18T10:40:50.400Z,97735.66
2022-10-18T10:43:36.920Z,97740.19
2022-10-18T10:46:13.954Z,97725.75
2022-10-18T10:49:27.820Z,97727.72
2022-10-18T10:52:08.099Z,97730.94
2022-10-18T10:54:50.294Z,97728.28
2022-10-18T10:57:27.646Z,97720.41
2022-10-18T10:59:57.043Z,97712.44
2022-10-18T11:02:32.175Z,97714.00
2022-10-18T11:05:24.446Z,97706.53
2022-10-18T11:07:54.829Z,97696.22
2022-10-18T11:10:29.633Z,97700.63
2022-10-18T11:13:23.267Z,97699.03
2022-10-18T11:15:57.205Z,97694.84
2022-10-18T11:18:34.521Z,97688.47
2022-10-18T11:21:24.710Z,97689.28
2022-10-18T11:23:51.347Z,97692.41
2022-10-18T11:26:32.653Z,97684.72
2022-10-18T11:29:30.182Z,97679.88
2022-10-18T11:32:19.487Z,97677.69
2022-10-18T11:34:56.945Z,97656.16
2022-10-18T11:37:54.380Z,97665.78
2022-10-18T11:40:51.447Z,97673.66
2022-10-18T11:44:01.830Z,97672.38
2022-10-18T11:46:47.448Z,97678.75
2022-10-18T11:49:35.190Z,97660.91
2022-10-18T11:52:11.618Z,97674.06
2022-10-18T11:55:05.315Z,97681.19
2022-10-18T11:58:20.144Z,97675.59
2022-10-18T12:00:51.919Z,97674.59
2022-10-18T12:03:27.956Z,97678.44
2022-10-18T12:05:57.617Z,97653.78
2022-10-18T12:08:38.809Z,97666.00
2022-10-18T12:11:30.714Z,97678.34
2022-10-18T12:14:03.330Z,97674.56
2022-10-18T12:16:50.407Z,97679.16
2022-10-18T12:19:26.207Z,97665.97
2022-10-18T12:21:56.511Z,97670.56
2022-10-18T12:24:28.834Z,97669.00
2022-10-18T12:26:59.481Z,97664.22
2022-10-18T12:29:35.151Z,97660.63
2022-10-18T12:32:07.805Z,97658.31
2022-10-18T12:34:51.908Z,97650.97
2022-10-18T12:37:27.655Z,97654.22
2022-10-18T12:40:13.503Z,97638.72
2022-10-18T12:42:46.890Z,97649.88
2022-10-18T12:45:13.365Z,97649.69
2022-10-18T12:47:40.409Z,97646.72
2022-10-18T12:50:28.099Z,97652.16
2022-10-18T12:53:17.885Z,97643.97
2022-10-18T12:55:47.850Z,97645.69
2022-10-18T12:58:14.343Z,97646.56
2022-10-18T13:00:43.765Z,97648.94
2022-10-18T13:03:10.306Z,97640.81
2022-10-18T13:05:54.423Z,97640.38
2022-10-18T13:08:28.079Z,97643.78
2022-10-18T13:11:12.764Z,97664.50
2022-10-18T13:14:06.872Z,97667.84
2022-10-18T13:16:46.713Z,97655.19
2022-10-18T13:20:02.914Z,97657.22
2022-10-18T13:22:58.251Z,97660.09
2022-10-18T13:25:28.598Z,97670.56
2022-10-18T13:28:00.929Z,97659.00
2022-10-18T13:30:31.483Z,97657.97
2022-10-18T13:33:31.608Z,97665.09
2022-10-18T13:36:22.477Z,97659.56
2022-10-18T13:38:57.163Z,97662.66
2022-10-18T13:41:26.833Z,97659.22
2022-10-18T13:44:10.384Z,97670.31
2022-10-18T13:46:36.820Z,97659.06
2022-10-18T13:49:21.376Z,97664.53
2022-10-18T13:52:40.391Z,97666.69
2022-10-18T13:55:43.152Z,97669.72
2022-10-18T13:58:24.590Z,97661.16
2022-10-18T14:00:51.033Z,97660.13
2022-10-18T14:03:55.047Z,97659.78
2022-10-18T14:06:20.177Z,97654.41
2022-10-18T14:08:54.290Z,97671.19
2022-10-18T14:11:46.169Z,97672.09
2022-10-18T14:14:31.684Z,97678.75
2022-10-18T14:17:04.443Z,97684.19
2022-10-18T14:19:39.807Z,97674.78
2022-10-18T14:22:15.470Z,97681.22
2022-10-18T14:24:46.650Z,97681.88
2022-10-18T14:27:26.232Z,97684.16
2022-10-18T14:30:08.064Z,97686.53
2022-10-18T14:32:36.020Z,97692.50
2022-10-18T14:35:30.996Z,97695.19
2022-10-18T14:37:51.751Z,97683.78
2022-10-18T14:40:39.007Z,97695.69
2022-10-18T14:43:15.102Z,97694.44
2022-10-18T14:45:42.944Z,97703.25
2022-10-18T14:48:18.194Z,97690.22
2022-10-18T14:50:47.202Z,97704.88
2022-10-18T14:53:21.908Z,97696.41
2022-10-18T14:56:03.281Z,97692.94
2022-10-18T14:58:30.550Z,97688.66
2022-10-18T15:00:58.941Z,97689.97
2022-10-18T15:03:28.209Z,97686.78
2022-10-18T15:06:05.126Z,97685.75
2022-10-18T15:08:40.548Z,97682.53
2022-10-18T15:11:11.856Z,97689.97
2022-10-18T15:13:52.079Z,97692.38
2022-10-18T15:16:20.454Z,97685.72
2022-10-18T15:19:07.260Z,97686.25
2022-10-18T15:21:36.132Z,97686.50
2022-10-18T15:24:29.635Z,97687.34
2022-10-18T15:27:00.498Z,97682.00
2022-10-18T15:29:32.341Z,97683.59
2022-10-18T15:32:07.748Z,97687.84
2022-10-18T15:34:35.258Z,97683.84
2022-10-18T15:37:16.718Z,97687.59
2022-10-18T15:39:43.316Z,97691.56
2022-10-18T15:42:38.764Z,97687.84
2022-10-18T15:45:25.757Z,97695.28
2022-10-18T15:48:10.672Z,97699.81
2022-10-18T15:50:42.731Z,97693.94
2022-10-18T15:53:21.321Z,97700.03
2022-10-18T15:55:47.988Z,97702.38
2022-10-18T15:58:27.433Z,97704.47
2022-10-18T16:01:00.981Z,97703.41
2022-10-18T16:03:28.426Z,97715.78
2022-10-18T16:06:07.552Z,97714.75
2022-10-18T16:08:40.911Z,97712.03
2022-10-18T16:11:12.460Z,97709.94
2022-10-18T16:13:38.980Z,97716.38
2022-10-18T16:16:05.375Z,97711.69
2022-10-18T16:18:31.956Z,97714.53
2022-10-18T16:20:58.418Z,97727.28
2022-10-18T16:23:28.627Z,97725.91
2022-10-18T16:25:55.814Z,97721.59
2022-10-18T16:28:25.072Z,97723.41
2022-10-18T16:30:54.715Z,97733.88
2022-10-18T16:33:21.722Z,97733.06
2022-10-18T16:35:48.789Z,97729.56
2022-10-18T16:38:44.800Z,97736.97
2022-10-18T16:41:13.319Z,97737.72
2022-10-18T16:43:39.889Z,97734.75
2022-10-18T16:46:06.906Z,97745.28
2022-10-18T16:48:33.899Z,97742.59
2022-10-18T16:51:01.615Z,97752.91
2022-10-18T16:53:28.736Z,97753.34
2022-10-18T16:56:01.760Z,97751.22
2022-10-18T16:58:29.916Z,97766.84
2022-10-18T17:00:57.372Z,97766.16
2022-10-18T17:03:24.742Z,97770.94
2022-10-18T17:05:52.129Z,97782.84
2022-10-18T17:08:28.523Z,97767.38
2022-10-18T17:10:58.177Z,97781.31
2022-10-18T17:13:25.952Z,97775.06
2022-10-18T17:15:53.079Z,97769.94
2022-10-18T17:18:22.263Z,97779.53
2022-10-18T17:20:49.568Z,97775.59
2022-10-18T17:23:16.408Z,97778.06
2022-10-18T17:25:57.431Z,97776.53
2022-10-18T17:28:31.269Z,97773.84
2022-10-18T17:30:57.937Z,97781.75
2022-10-18T17:33:24.442Z,97784.22
2022-10-18T17:35:50.935Z,97776.72
2022-10-18T17:38:17.526Z,97783.28
2022-10-18T17:40:44.134Z,97783.13
2022-10-18T17:43:13.232Z,97787.41
2022-10-18T17:45:51.066Z,97784.84
2022-10-18T17:48:17.825Z,97791.34
2022-10-18T17:50:44.457Z,97791.78
2022-10-18T17:53:12.888Z,97801.22
2022-10-18T17:55:39.957Z,97793.94
2022-10-18T17:58:06.506Z,97798.25
2022-10-18T18:00:32.941Z,97803.59
2022-10-18T18:03:00.615Z,97798.81
2022-10-18T18:05:30.998Z,97806.25
2022-10-18T18:08:02.723Z,97809.59
2022-10-18T18:10:33.504Z,97804.03
2022-10-18T18:13:00.608Z,97808.72
2022-10-18T18:15:27.394Z,97820.69
2022-10-18T18:17:57.191Z,97816.19
2022-10-18T18:20:25.502Z,97810.56
2022-10-18T18:22:52.013Z,97806.81
2022-10-18T18:25:18.479Z,97814.56
2022-10-18T18:27:45.050Z,97818.44
2022-10-18T18:30:11.745Z,97811.72
2022-10-18T18:32:39.568Z,97790.06
2022-10-18T18:35:06.144Z,97806.44
2022-10-18T18:37:32.766Z,97802.59
2022-10-18T18:39:59.164Z,97802.28
2022-10-18T18:42:25.709Z,97803.31
2022-10-18T18:44:52.206Z,97807.00
2022-10-18T18:47:23.471Z,97803.97
2022-10-18T18:49:51.547Z,97808.47
2022-10-18T18:52:18.018Z,97800.19
2022-10-18T18:54:45.007Z,97778.63
2022-10-18T18:57:11.474Z,97795.56
2022-10-18T18:59:37.921Z,97798.91
2022-10-18T19:02:04.383Z,97796.19
2022-10-18T19:04:31.051Z,97785.78
2022-10-18T19:06:57.639Z,97775.84
2022-10-18T19:09:25.511Z,97802.38
2022-10-18T19:11:54.250Z,97789.47
2022-10-18T19:16:58.736Z,97788.53
2022-10-18T19:19:27.624Z,97808.56
2022-10-18T19:21:56.710Z,97804.06
2022-10-18T19:24:24.736Z,97791.31
2022-10-18T19:27:03.565Z,97794.50
2022-10-18T19:29:32.102Z,97784.41
2022-10-18T19:32:01.976Z,97783.53
2022-10-18T19:34:30.456Z,97793.41
2022-10-18T19:36:57.106Z,97793.00
2022-10-18T19:39:25.956Z,97806.44
2022-10-18T19:41:55.404Z,97807.09
2022-10-18T19:44:23.438Z,97801.41
2022-10-18T19:46:49.986Z,97804.69
2022-10-18T19:49:16.775Z,97807.09
2022-10-18T19:51:43.479Z,97795.41
2022-10-18T19:54:12.032Z,97815.06
2022-10-18T19:56:38.831Z,97803.34
2022-10-18T19:59:05.398Z,97798.56
2022-10-18T20:01:32.025Z,97807.25
2022-10-18T20:03:58.947Z,97798.78
2022-10-18T20:06:25.756Z,97808.88
2022-10-18T20:08:52.959Z,97806.56
2022-10-18T20:11:22.634Z,97810.22
2022-10-18T20:13:49.674Z,97808.50
2022-10-18T20:16:18.662Z,97815.09
2022-10-18T20:18:45.427Z,97808.25
2022-10-18T20:21:14.660Z,97821.13
2022-10-18T20:23:42.420Z,97818.59
2022-10-18T20:26:20.586Z,97815.41
2022-10-18T20:28:59.446Z,97811.66
2022-10-18T20:31:29.138Z,97817.72
2022-10-18T20:33:58.728Z,97822.25
2022-10-18T20:36:26.724Z,97826.72
2022-10-18T20:38:53.378Z,97814.53
2022-10-18T20:41:25.852Z,97821.63
2022-10-18T20:43:54.703Z,97824.81
2022-10-18T20:46:21.928Z,97833.09
2022-10-18T20:48:49.937Z,97824.47
2022-10-18T20:51:19.534Z,97819.38
2022-10-18T20:53:46.641Z,97822.03
2022-10-18T20:56:15.921Z,97827.19
2022-10-18T20:58:44.190Z,97801.91
2022-10-18T21:01:25.164Z,97820.19
2022-10-18T21:03:53.392Z,97822.44
2022-10-18T21:06:25.659Z,97819.56
2022-10-18T21:08:57.179Z,97820.16
2022-10-18T21:11:24.807Z,97830.56
2022-10-18T21:13:52.810Z,97822.41
2022-10-18T21:16:19.396Z,97825.13
2022-10-18T21:18:45.771Z,97829.00
2022-10-18T21:21:15.490Z,97829.78
2022-10-18T21:23:42.369Z,97821.38
2022-10-18T21:26:17.160Z,97811.53
2022-10-18T21:28:44.642Z,97811.63
2022-10-18T21:31:20.120Z,97804.75
2022-10-18T21:33:47.668Z,97809.22
2022-10-18T21:36:14.829Z,97804.16
2022-10-18T21:38:45.536Z,97805.50
2022-10-18T21:41:14.523Z,97796.81
2022-10-18T21:43:43.708Z,97784.69
2022-10-18T21:46:11.602Z,97805.28
2022-10-18T21:48:38.853Z,97802.84
2022-10-18T21:51:07.392Z,97814.44
2022-10-18T21:53:34.404Z,97807.44
2022-10-18T21:56:06.275Z,97806.38
2022-10-18T21:58:32.914Z,97811.59
2022-10-18T22:17:39.837Z,97796.88
2022-10-18T22:20:06.463Z,97800.28
2022-10-18T22:22:32.965Z,97796.81
2022-10-18T22:24:59.501Z,97788.97
2022-10-18T22:27:25.908Z,97794.69
2022-10-18T22:29:53.410Z,97784.69
2022-10-18T22:32:19.883Z,97789.94
2022-10-18T22:34:46.425Z,97787.28
2022-10-18T22:37:12.871Z,97791.47
2022-10-18T22:39:39.358Z,97789.03
2022-10-18T22:42:06.237Z,97789.84
2022-10-18T22:44:36.192Z,97789.84
2022-10-18T22:47:03.578Z,97789.38
2022-10-18T22:49:30.096Z,97789.78
2022-10-18T22:51:56.514Z,97793.59
2022-10-18T22:54:23.079Z,97789.72
2022-10-18T22:56:50.141Z,97787.63
2022-10-18T22:59:16.668Z,97775.69
2022-10-18T23:01:43.066Z,97780.81
2022-10-18T23:04:10.223Z,97768.41
2022-10-18T23:06:36.808Z,97778.28
2022-10-18T23:09:05.117Z,97779.53
2022-10-18T23:11:32.565Z,97784.94
2022-10-18T23:13:59.076Z,97783.22
2022-10-18T23:16:25.540Z,97781.47
2022-10-18T23:18:54.441Z,97778.91
2022-10-18T23:21:23.739Z,97771.22
2022-10-18T23:23:50.930Z,97768.25
2022-10-18T23:26:23.227Z,97761.28
2022-10-18T23:28:51.918Z,97768.41
2022-10-18T23:31:21.334Z,97770.16
2022-10-18T23:33:49.515Z,97764.94
2022-10-18T23:36:16.766Z,97763.28
2022-10-18T23:38:44.365Z,97755.09
2022-10-18T23:41:12.865Z,97768.72
2022-10-18T23:43:39.975Z,97761.34
2022-10-18T23:46:07.124Z,97752.88
2022-10-18T23:48:34.317Z,97761.81
2022-10-18T23:51:02.266Z,97758.06
2022-10-18T23:53:28.956Z,97769.44
2022-10-18T23:56:00.770Z,97754.47
2022-10-18T23:58:29.641Z,97762.00
